Time;durP1;ratioP1;P1;durP2;ratioP2;P2;SDS_P1;SDS_P2;PMS_P1;PMS_P2;Temp;Humidity;BMP_temperature;BMP_pressure;BME280_temperature;BME280_humidity;BME280_pressure;Samples;Min_cycle;Max_cycle;Signal;HPM_P1;HPM_P2
2023/09/02 00:02:39;;;;;;;2.67;2.47;;;;;;;;;;10332777;28;20095;-65
2023/09/02 00:07:38;;;;;;;3.30;3.00;;;;;;;;;;10333975;28;20084;-64
2023/09/02 00:12:37;;;;;;;2.83;2.63;;;;;;;;;;10333413;28;20469;-65
2023/09/02 00:17:38;;;;;;;3.85;2.80;;;;;;;;;;10333669;28;20079;-65
2023/09/02 00:22:38;;;;;;;6.22;3.05;;;;;;;;;;10331570;28;20072;-64
2023/09/02 00:27:38;;;;;;;3.13;2.70;;;;;;;;;;10330679;28;20075;-66
2023/09/02 00:32:38;;;;;;;3.95;3.65;;;;;;;;;;10331048;28;20076;-65
2023/09/02 00:37:37;;;;;;;6.00;2.70;;;;;;;;;;10331663;28;20071;-65
2023/09/02 00:42:35;;;;;;;3.78;3.38;;;;;;;;;;10331836;28;20056;-65
2023/09/02 00:47:40;;;;;;;3.70;3.03;;;;;;;;;;10332217;28;20076;-65
2023/09/02 00:52:39;;;;;;;3.00;2.70;;;;;;;;;;10332342;28;20079;-65
2023/09/02 00:57:38;;;;;;;3.20;2.90;;;;;;;;;;10331830;28;20136;-66
2023/09/02 01:02:37;;;;;;;4.15;3.42;;;;;;;;;;10311526;28;20493;-65
2023/09/02 01:07:38;;;;;;;5.00;3.17;;;;;;;;;;10300701;28;20083;-65
2023/09/02 01:12:37;;;;;;;4.22;3.13;;;;;;;;;;10330513;28;20068;-65
2023/09/02 01:17:36;;;;;;;3.88;3.03;;;;;;;;;;10312899;28;20083;-65
2023/09/02 01:22:41;;;;;;;3.28;2.88;;;;;;;;;;10329603;28;20492;-65
2023/09/02 01:27:43;;;;;;;5.85;2.75;;;;;;;;;;10329453;28;20074;-66
2023/09/02 01:32:43;;;;;;;6.15;2.97;;;;;;;;;;10331561;28;20335;-65
2023/09/02 01:37:43;;;;;;;4.03;3.05;;;;;;;;;;10310433;28;20048;-65
2023/09/02 01:42:43;;;;;;;3.67;3.30;;;;;;;;;;10325540;28;20064;-66
2023/09/02 01:47:41;;;;;;;6.32;3.53;;;;;;;;;;10310036;28;20079;-65
2023/09/02 01:52:40;;;;;;;4.68;3.22;;;;;;;;;;10328204;28;20072;-65
2023/09/02 01:57:38;;;;;;;4.70;2.88;;;;;;;;;;10329202;28;20068;-65
2023/09/02 02:02:39;;;;;;;6.63;3.47;;;;;;;;;;10295474;28;20441;-64
2023/09/02 02:07:42;;;;;;;3.40;3.10;;;;;;;;;;10318732;28;20516;-65
2023/09/02 02:12:41;;;;;;;7.40;3.83;;;;;;;;;;10299350;28;20079;-64
2023/09/02 02:17:41;;;;;;;3.50;3.20;;;;;;;;;;10330238;28;20071;-65
2023/09/02 02:22:40;;;;;;;4.47;3.47;;;;;;;;;;10327433;28;20067;-65
2023/09/02 02:27:38;;;;;;;6.00;3.42;;;;;;;;;;10326234;28;20513;-65
2023/09/02 02:32:36;;;;;;;3.17;2.88;;;;;;;;;;10326661;28;20068;-65
2023/09/02 02:37:36;;;;;;;3.53;2.65;;;;;;;;;;10328529;28;20064;-65
2023/09/02 02:42:34;;;;;;;11.48;4.25;;;;;;;;;;10324994;28;20077;-65
2023/09/02 02:47:32;;;;;;;4.90;3.50;;;;;;;;;;10316426;28;20469;-66
2023/09/02 02:52:31;;;;;;;4.05;3.60;;;;;;;;;;10332259;28;20150;-65
2023/09/02 02:57:30;;;;;;;8.07;3.55;;;;;;;;;;10334492;28;20448;-64
2023/09/02 03:02:29;;;;;;;6.57;4.22;;;;;;;;;;10323438;28;20076;-65
2023/09/02 03:07:28;;;;;;;5.88;3.05;;;;;;;;;;10315855;28;20094;-64
2023/09/02 03:12:26;;;;;;;5.05;3.60;;;;;;;;;;10334577;28;20087;-64
2023/09/02 03:17:26;;;;;;;7.05;3.38;;;;;;;;;;10323780;28;20110;-65
2023/09/02 03:22:24;;;;;;;6.47;3.67;;;;;;;;;;10324103;28;20664;-65
2023/09/02 03:27:22;;;;;;;3.75;3.45;;;;;;;;;;10335657;28;20417;-65
2023/09/02 03:32:26;;;;;;;7.45;4.18;;;;;;;;;;10324260;28;20072;-65
2023/09/02 03:37:26;;;;;;;3.75;3.33;;;;;;;;;;10302852;28;20080;-65
2023/09/02 03:42:25;;;;;;;3.75;3.45;;;;;;;;;;10314703;28;20478;-65
2023/09/02 03:47:23;;;;;;;4.30;3.90;;;;;;;;;;10333871;28;20068;-65
2023/09/02 03:52:22;;;;;;;4.75;3.70;;;;;;;;;;10324601;28;20076;-64
2023/09/02 03:57:22;;;;;;;6.43;3.95;;;;;;;;;;10323693;28;20068;-65
2023/09/02 04:02:20;;;;;;;5.65;3.72;;;;;;;;;;10333027;28;20519;-65
2023/09/02 04:07:19;;;;;;;5.40;3.88;;;;;;;;;;10322968;28;20084;-65
2023/09/02 04:12:17;;;;;;;4.32;4.03;;;;;;;;;;10330039;28;20118;-64
2023/09/02 04:17:17;;;;;;;4.07;3.65;;;;;;;;;;10330240;28;20091;-65
2023/09/02 04:22:16;;;;;;;4.40;3.97;;;;;;;;;;10311190;28;20072;-65
2023/09/02 04:27:14;;;;;;;5.80;4.35;;;;;;;;;;10329631;28;20082;-65
2023/09/02 04:32:13;;;;;;;7.38;4.03;;;;;;;;;;10333656;28;20079;-65
2023/09/02 04:37:12;;;;;;;5.47;3.80;;;;;;;;;;10316507;28;20568;-65
2023/09/02 04:42:11;;;;;;;4.40;3.53;;;;;;;;;;10323808;28;20060;-65
2023/09/02 04:47:12;;;;;;;4.90;4.07;;;;;;;;;;10334952;28;20071;-65
2023/09/02 04:52:11;;;;;;;10.35;3.85;;;;;;;;;;10328963;28;20071;-65
2023/09/02 04:57:11;;;;;;;4.95;3.90;;;;;;;;;;10330466;28;20068;-65
2023/09/02 05:02:11;;;;;;;9.55;3.15;;;;;;;;;;10298584;28;20464;-65
2023/09/02 05:07:09;;;;;;;4.32;3.90;;;;;;;;;;10319709;28;20083;-65
2023/09/02 05:12:08;;;;;;;10.73;5.57;;;;;;;;;;10315752;28;20076;-66
2023/09/02 05:17:08;;;;;;;7.40;4.95;;;;;;;;;;10332420;28;20600;-66
2023/09/02 05:22:09;;;;;;;10.63;6.90;;;;;;;;;;10321831;28;20082;-66
2023/09/02 05:27:07;;;;;;;10.52;6.07;;;;;;;;;;10319849;28;20071;-64
2023/09/02 05:32:06;;;;;;;10.95;6.15;;;;;;;;;;10312211;28;20072;-65
2023/09/02 05:37:05;;;;;;;10.77;5.43;;;;;;;;;;10330312;28;20075;-65
2023/09/02 05:42:04;;;;;;;9.05;5.72;;;;;;;;;;10325470;28;20071;-65
2023/09/02 05:47:02;;;;;;;7.60;5.15;;;;;;;;;;10326912;28;20505;-65
2023/09/02 05:52:01;;;;;;;13.77;7.32;;;;;;;;;;10326470;28;20068;-64
2023/09/02 05:57:00;;;;;;;11.60;6.18;;;;;;;;;;10330216;28;20076;-64
2023/09/02 06:01:59;;;;;;;8.75;6.10;;;;;;;;;;10327781;28;20061;-64
2023/09/02 06:06:57;;;;;;;7.53;6.20;;;;;;;;;;10326797;28;20079;-65
2023/09/02 06:11:55;;;;;;;9.32;6.57;;;;;;;;;;10327979;28;20082;-65
2023/09/02 06:16:55;;;;;;;15.63;7.63;;;;;;;;;;10326847;28;20067;-65
2023/09/02 06:21:53;;;;;;;20.63;8.13;;;;;;;;;;10323128;28;20068;-64
2023/09/02 06:26:52;;;;;;;12.07;7.07;;;;;;;;;;10329893;28;20076;-65
2023/09/02 06:31:50;;;;;;;13.93;7.65;;;;;;;;;;10326964;28;20083;-64
2023/09/02 06:36:49;;;;;;;8.95;6.43;;;;;;;;;;10326881;28;20083;-65
2023/09/02 06:41:48;;;;;;;15.52;7.53;;;;;;;;;;10324270;28;20083;-65
2023/09/02 06:46:49;;;;;;;12.10;7.28;;;;;;;;;;10322735;28;20068;-65
2023/09/02 06:51:47;;;;;;;9.07;7.07;;;;;;;;;;10325293;28;20171;-65
2023/09/02 06:56:47;;;;;;;11.65;7.60;;;;;;;;;;10326374;28;20075;-65
2023/09/02 07:01:45;;;;;;;10.85;6.32;;;;;;;;;;10313697;28;20068;-63
2023/09/02 07:06:43;;;;;;;10.65;6.28;;;;;;;;;;10327523;28;20072;-64
2023/09/02 07:11:41;;;;;;;16.35;5.25;;;;;;;;;;10327302;28;20078;-64
2023/09/02 07:16:41;;;;;;;13.63;5.93;;;;;;;;;;10311672;28;20083;-65
2023/09/02 07:21:39;;;;;;;7.75;5.35;;;;;;;;;;10328040;28;20079;-65
2023/09/02 07:26:37;;;;;;;5.88;5.28;;;;;;;;;;10326163;28;20072;-64
2023/09/02 07:31:36;;;;;;;6.28;4.65;;;;;;;;;;10327103;28;20083;-64
2023/09/02 07:36:35;;;;;;;5.15;4.70;;;;;;;;;;10330903;28;20067;-64
2023/09/02 07:41:34;;;;;;;8.48;5.47;;;;;;;;;;10326243;28;20473;-64
2023/09/02 07:46:32;;;;;;;6.50;4.35;;;;;;;;;;10331892;28;20634;-65
2023/09/02 07:51:30;;;;;;;8.43;7.15;;;;;;;;;;10330025;28;20092;-64
2023/09/02 07:56:30;;;;;;;5.03;4.25;;;;;;;;;;10334590;28;20079;-65
2023/09/02 08:01:29;;;;;;;8.13;5.65;;;;;;;;;;10332135;28;20068;-63
2023/09/02 08:06:27;;;;;;;13.48;6.22;;;;;;;;;;10332136;28;20075;-64
2023/09/02 08:11:26;;;;;;;6.20;5.10;;;;;;;;;;10276203;28;20121;-64
2023/09/02 08:16:25;;;;;;;5.72;4.60;;;;;;;;;;10293137;28;20068;-67
2023/09/02 08:21:24;;;;;;;7.50;5.47;;;;;;;;;;10296332;28;20064;-67
2023/09/02 08:26:22;;;;;;;5.30;4.80;;;;;;;;;;10290272;28;20064;-66
2023/09/02 08:31:20;;;;;;;6.50;5.95;;;;;;;;;;10282500;28;20072;-65
2023/09/02 08:36:20;;;;;;;5.88;5.38;;;;;;;;;;10286975;28;20072;-66
2023/09/02 08:41:24;;;;;;;6.50;5.85;;;;;;;;;;10293699;28;20063;-66
2023/09/02 08:46:25;;;;;;;7.78;7.10;;;;;;;;;;10294243;28;20513;-66
2023/09/02 08:51:25;;;;;;;7.38;6.03;;;;;;;;;;10293316;28;22450;-65
2023/09/02 08:56:24;;;;;;;6.80;5.93;;;;;;;;;;10280606;28;20080;-65
2023/09/02 09:01:23;;;;;;;6.53;4.70;;;;;;;;;;10287138;28;20084;-65
2023/09/02 09:06:23;;;;;;;10.10;4.80;;;;;;;;;;10285380;28;20067;-64
2023/09/02 09:11:23;;;;;;;8.23;5.35;;;;;;;;;;10331111;28;20513;-66
2023/09/02 09:16:24;;;;;;;12.57;5.40;;;;;;;;;;10321361;28;20063;-66
2023/09/02 09:21:22;;;;;;;6.15;4.30;;;;;;;;;;10326119;28;20076;-66
2023/09/02 09:26:22;;;;;;;10.73;4.47;;;;;;;;;;10327300;28;20501;-65
2023/09/02 09:31:22;;;;;;;7.00;4.40;;;;;;;;;;10326041;28;20068;-64
2023/09/02 09:36:21;;;;;;;5.10;4.10;;;;;;;;;;10327283;28;20476;-64
2023/09/02 09:41:20;;;;;;;12.93;5.65;;;;;;;;;;10331546;28;20058;-65
2023/09/02 09:46:18;;;;;;;7.88;4.03;;;;;;;;;;10311209;28;20517;-65
2023/09/02 09:51:23;;;;;;;11.73;4.50;;;;;;;;;;10325100;28;20559;-66
2023/09/02 09:56:22;;;;;;;4.13;3.72;;;;;;;;;;10324349;28;20068;-66
2023/09/02 10:01:24;;;;;;;7.45;3.95;;;;;;;;;;10327680;28;20067;-66
2023/09/02 10:06:25;;;;;;;5.32;3.83;;;;;;;;;;10329064;28;20506;-65
2023/09/02 10:11:24;;;;;;;4.97;4.25;;;;;;;;;;10329730;28;20071;-67
2023/09/02 10:16:24;;;;;;;5.65;4.38;;;;;;;;;;10329815;28;20075;-65
2023/09/02 10:21:24;;;;;;;7.35;3.30;;;;;;;;;;10327106;28;20067;-67
2023/09/02 10:26:28;;;;;;;9.23;3.63;;;;;;;;;;10326030;28;20059;-66
2023/09/02 10:31:30;;;;;;;8.63;3.42;;;;;;;;;;10327470;28;20072;-65
2023/09/02 10:36:29;;;;;;;3.22;2.92;;;;;;;;;;10328747;28;20090;-65
2023/09/02 10:41:29;;;;;;;7.32;3.75;;;;;;;;;;10328247;28;20079;-65
2023/09/02 10:46:28;;;;;;;4.47;3.75;;;;;;;;;;10327268;28;20071;-66
2023/09/02 10:51:26;;;;;;;5.22;4.20;;;;;;;;;;10324825;28;20091;-67
2023/09/02 10:56:25;;;;;;;7.72;4.95;;;;;;;;;;10324460;28;20079;-68
2023/09/02 11:01:25;;;;;;;5.55;3.60;;;;;;;;;;10323877;28;20088;-67
2023/09/02 11:06:23;;;;;;;8.38;6.90;;;;;;;;;;10327947;28;20517;-68
2023/09/02 11:11:21;;;;;;;5.90;5.22;;;;;;;;;;10334740;28;20079;-66
2023/09/02 11:16:20;;;;;;;4.25;3.85;;;;;;;;;;10332610;28;20547;-66
2023/09/02 11:21:38;;;;;;;3.75;3.00;;;;;;;;;;10330500;28;20481;-66
2023/09/02 11:26:49;;;;;;;4.65;3.63;;;;;;;;;;10331645;28;20505;-67
2023/09/02 11:31:55;;;;;;;4.00;3.38;;;;;;;;;;10305160;28;20091;-66
2023/09/02 11:36:54;;;;;;;7.20;4.97;;;;;;;;;;10325534;28;20070;-68
2023/09/02 11:42:06;;;;;;;3.22;2.85;;;;;;;;;;10332577;28;20064;-67
2023/09/02 11:47:05;;;;;;;4.00;3.58;;;;;;;;;;10330843;28;20072;-67
2023/09/02 11:52:09;;;;;;;3.60;3.05;;;;;;;;;;10334107;28;20060;-67
2023/09/02 11:57:07;;;;;;;4.72;4.32;;;;;;;;;;10330424;28;20072;-68
2023/09/02 12:02:08;;;;;;;4.22;3.05;;;;;;;;;;10334577;28;20462;-68
2023/09/02 12:07:08;;;;;;;3.45;3.05;;;;;;;;;;10333296;28;20509;-68
2023/09/02 12:12:07;;;;;;;3.85;3.47;;;;;;;;;;10311699;28;20075;-66
2023/09/02 12:17:05;;;;;;;5.47;2.92;;;;;;;;;;10332040;28;20510;-67
2023/09/02 12:22:08;;;;;;;3.92;2.75;;;;;;;;;;10333461;28;20489;-68
2023/09/02 12:27:10;;;;;;;6.35;3.13;;;;;;;;;;10334248;28;20067;-68
2023/09/02 12:32:09;;;;;;;2.80;2.60;;;;;;;;;;10331599;28;20083;-68
2023/09/02 12:37:16;;;;;;;3.78;3.47;;;;;;;;;;10332586;28;20064;-68
2023/09/02 12:42:15;;;;;;;4.40;3.83;;;;;;;;;;10328180;28;20071;-68
2023/09/02 12:47:17;;;;;;;6.30;3.85;;;;;;;;;;10337567;28;20079;-68
2023/09/02 12:52:17;;;;;;;6.18;3.25;;;;;;;;;;10338035;28;20064;-68
2023/09/02 12:57:16;;;;;;;7.85;4.28;;;;;;;;;;10334524;28;20504;-67
2023/09/02 13:02:14;;;;;;;4.43;3.70;;;;;;;;;;10335450;28;20478;-67
2023/09/02 13:07:13;;;;;;;4.55;3.20;;;;;;;;;;10317434;28;20079;-67
2023/09/02 13:12:12;;;;;;;4.57;3.97;;;;;;;;;;10332690;28;20056;-68
2023/09/02 13:17:11;;;;;;;13.75;12.73;;;;;;;;;;10331483;28;20161;-67
2023/09/02 13:22:10;;;;;;;3.88;3.58;;;;;;;;;;10335872;28;20532;-65
2023/09/02 13:27:09;;;;;;;8.65;2.95;;;;;;;;;;10331070;28;20090;-65
2023/09/02 13:32:10;;;;;;;6.22;4.53;;;;;;;;;;10329070;28;20478;-67
2023/09/02 13:37:15;;;;;;;3.00;2.70;;;;;;;;;;10327788;28;20070;-66
2023/09/02 13:42:15;;;;;;;3.47;2.70;;;;;;;;;;10327771;28;20071;-67
2023/09/02 13:47:16;;;;;;;3.53;3.22;;;;;;;;;;10329188;28;20075;-66
2023/09/02 13:52:15;;;;;;;4.53;2.90;;;;;;;;;;10329891;28;20063;-66
2023/09/02 13:57:14;;;;;;;3.40;3.10;;;;;;;;;;10330192;28;20072;-67
2023/09/02 14:02:15;;;;;;;5.43;3.65;;;;;;;;;;10330915;28;20760;-66
2023/09/02 14:07:16;;;;;;;3.72;2.83;;;;;;;;;;10329534;28;20726;-68
2023/09/02 14:12:16;;;;;;;4.00;3.53;;;;;;;;;;10327043;28;20056;-67
2023/09/02 14:17:15;;;;;;;5.28;2.47;;;;;;;;;;10329327;28;20075;-67
2023/09/02 14:22:16;;;;;;;8.32;3.70;;;;;;;;;;10330131;28;20072;-67
2023/09/02 14:27:14;;;;;;;3.40;3.10;;;;;;;;;;10327701;28;20079;-67
2023/09/02 14:32:13;;;;;;;6.07;3.53;;;;;;;;;;10328823;28;20445;-67
2023/09/02 14:37:13;;;;;;;4.93;3.08;;;;;;;;;;10329744;28;20071;-66
2023/09/02 14:42:11;;;;;;;9.18;3.83;;;;;;;;;;10331015;28;20072;-66
2023/09/02 14:47:11;;;;;;;7.65;3.72;;;;;;;;;;10334126;28;20094;-66
2023/09/02 14:52:09;;;;;;;4.00;3.60;;;;;;;;;;10336346;28;20075;-65
2023/09/02 14:57:09;;;;;;;3.90;3.55;;;;;;;;;;10336026;28;20076;-66
2023/09/02 15:02:13;;;;;;;10.32;4.43;;;;;;;;;;10335145;28;20067;-65
2023/09/02 15:07:13;;;;;;;11.05;3.95;;;;;;;;;;10335966;28;20106;-66
2023/09/02 15:12:14;;;;;;;5.53;3.78;;;;;;;;;;10340369;28;20078;-66
2023/09/02 15:17:13;;;;;;;7.65;4.28;;;;;;;;;;10336839;28;20083;-65
2023/09/02 15:22:11;;;;;;;7.13;3.72;;;;;;;;;;10333403;28;20063;-67
2023/09/02 15:27:10;;;;;;;3.90;3.42;;;;;;;;;;10336421;28;20102;-67
2023/09/02 15:32:10;;;;;;;4.15;3.50;;;;;;;;;;10335433;28;20064;-67
2023/09/02 15:37:13;;;;;;;6.65;3.75;;;;;;;;;;10335345;28;20076;-67
2023/09/02 15:42:11;;;;;;;3.47;2.90;;;;;;;;;;10335694;28;20359;-67
2023/09/02 15:47:11;;;;;;;4.35;3.22;;;;;;;;;;10333958;28;20095;-66
2023/09/02 15:52:10;;;;;;;7.40;3.60;;;;;;;;;;10333280;28;20453;-67
2023/09/02 15:57:11;;;;;;;4.43;3.47;;;;;;;;;;10331384;28;20072;-66
2023/09/02 16:02:09;;;;;;;3.47;3.17;;;;;;;;;;10330341;28;20087;-67
2023/09/02 16:07:09;;;;;;;4.97;3.67;;;;;;;;;;10332013;28;20084;-66
2023/09/02 16:12:07;;;;;;;6.82;4.35;;;;;;;;;;10333642;28;20067;-66
2023/09/02 16:17:20;;;;;;;4.57;3.30;;;;;;;;;;10330763;28;20068;-66
2023/09/02 16:22:20;;;;;;;4.10;3.70;;;;;;;;;;10333706;28;20075;-66
2023/09/02 16:27:18;;;;;;;4.32;3.22;;;;;;;;;;10336664;28;20090;-66
2023/09/02 16:32:16;;;;;;;5.53;4.75;;;;;;;;;;10336250;28;20072;-67
2023/09/02 16:37:15;;;;;;;5.18;3.88;;;;;;;;;;10327405;28;20079;-66
2023/09/02 16:42:16;;;;;;;6.70;3.83;;;;;;;;;;10331864;28;20064;-66
2023/09/02 16:47:15;;;;;;;6.93;5.07;;;;;;;;;;10334272;28;20083;-66
2023/09/02 16:52:13;;;;;;;4.63;3.60;;;;;;;;;;10332322;28;20073;-66
2023/09/02 16:57:12;;;;;;;9.43;4.35;;;;;;;;;;10332110;28;20071;-67
2023/09/02 17:02:18;;;;;;;11.73;4.03;;;;;;;;;;10330261;28;20055;-67
2023/09/02 17:07:16;;;;;;;4.85;4.35;;;;;;;;;;10330581;28;20075;-67
2023/09/02 17:12:14;;;;;;;6.97;5.13;;;;;;;;;;10333653;28;20068;-67
2023/09/02 17:17:14;;;;;;;11.90;4.70;;;;;;;;;;10332450;28;20162;-67
2023/09/02 17:22:12;;;;;;;5.88;4.05;;;;;;;;;;10333900;28;20060;-66
2023/09/02 17:27:10;;;;;;;7.45;4.63;;;;;;;;;;10334408;28;20071;-65
2023/09/02 17:32:20;;;;;;;8.73;3.95;;;;;;;;;;10327001;28;20056;-65
2023/09/02 17:37:19;;;;;;;6.97;3.63;;;;;;;;;;10326512;28;20079;-64
2023/09/02 17:42:17;;;;;;;8.13;3.33;;;;;;;;;;10328404;28;20098;-66
2023/09/02 17:47:15;;;;;;;4.70;3.60;;;;;;;;;;10326760;28;20075;-66
2023/09/02 17:52:15;;;;;;;5.63;2.70;;;;;;;;;;10325492;28;20473;-66
2023/09/02 17:57:13;;;;;;;4.28;3.50;;;;;;;;;;10326996;28;20056;-66
2023/09/02 18:02:11;;;;;;;4.93;3.05;;;;;;;;;;10327418;28;20087;-66
2023/09/02 18:07:10;;;;;;;3.83;3.35;;;;;;;;;;10327086;28;20543;-65
2023/09/02 18:12:09;;;;;;;3.78;3.10;;;;;;;;;;10327433;28;20505;-65
2023/09/02 18:17:08;;;;;;;7.75;3.30;;;;;;;;;;10327140;28;20079;-65
2023/09/02 18:22:06;;;;;;;4.53;3.30;;;;;;;;;;10326878;28;20068;-65
2023/09/02 18:27:05;;;;;;;3.83;3.13;;;;;;;;;;10328770;28;20071;-65
2023/09/02 18:32:05;;;;;;;9.80;3.22;;;;;;;;;;10323780;28;20071;-65
2023/09/02 18:37:03;;;;;;;4.22;3.08;;;;;;;;;;10320800;28;20472;-64
2023/09/02 18:42:02;;;;;;;3.72;2.95;;;;;;;;;;10320089;28;20071;-64
2023/09/02 18:47:00;;;;;;;8.02;3.75;;;;;;;;;;10328969;28;20072;-64
2023/09/02 18:51:59;;;;;;;7.10;3.17;;;;;;;;;;10327282;28;20979;-64
2023/09/02 18:56:58;;;;;;;7.82;2.97;;;;;;;;;;10321314;28;20064;-65
2023/09/02 19:01:56;;;;;;;7.00;3.00;;;;;;;;;;10328542;28;20059;-65
2023/09/02 19:06:54;;;;;;;4.40;3.20;;;;;;;;;;10323101;28;20080;-64
2023/09/02 19:11:54;;;;;;;3.30;3.00;;;;;;;;;;10320493;28;20498;-65
2023/09/02 19:16:55;;;;;;;4.10;2.97;;;;;;;;;;10317116;28;20076;-65
2023/09/02 19:21:53;;;;;;;3.65;2.60;;;;;;;;;;10314059;28;20083;-65
2023/09/02 19:26:51;;;;;;;5.85;2.92;;;;;;;;;;10323768;28;20103;-65
2023/09/02 19:31:51;;;;;;;7.00;2.65;;;;;;;;;;10320308;28;20071;-65
2023/09/02 19:36:49;;;;;;;4.20;2.58;;;;;;;;;;10335039;28;20071;-65
2023/09/02 19:41:50;;;;;;;3.90;2.33;;;;;;;;;;10320923;28;20084;-65
2023/09/02 19:46:49;;;;;;;5.65;2.85;;;;;;;;;;10328974;28;20080;-64
2023/09/02 19:51:49;;;;;;;4.95;3.17;;;;;;;;;;10326093;28;20075;-65
2023/09/02 19:56:47;;;;;;;4.55;2.45;;;;;;;;;;10336370;28;20087;-65
2023/09/02 20:01:46;;;;;;;5.65;2.83;;;;;;;;;;10334198;28;20087;-65
2023/09/02 20:06:44;;;;;;;3.58;2.60;;;;;;;;;;10334757;28;20071;-65
2023/09/02 20:11:44;;;;;;;5.75;2.60;;;;;;;;;;10335063;28;20086;-64
2023/09/02 20:16:42;;;;;;;3.88;2.67;;;;;;;;;;10330870;28;20087;-65
2023/09/02 20:21:40;;;;;;;7.43;3.28;;;;;;;;;;10330970;28;20079;-64
2023/09/02 20:26:38;;;;;;;3.42;3.10;;;;;;;;;;10325756;28;20211;-65
2023/09/02 20:31:38;;;;;;;4.03;2.40;;;;;;;;;;10331115;28;20477;-65
2023/09/02 20:36:37;;;;;;;3.58;2.67;;;;;;;;;;10329435;28;20076;-65
2023/09/02 20:41:39;;;;;;;2.92;2.65;;;;;;;;;;10335976;28;20082;-64
2023/09/02 20:46:41;;;;;;;6.13;3.08;;;;;;;;;;10331868;28;20064;-65
2023/09/02 20:51:39;;;;;;;4.20;3.20;;;;;;;;;;10332641;28;20056;-65
2023/09/02 20:56:38;;;;;;;4.03;3.10;;;;;;;;;;10329780;28;20517;-64
2023/09/02 21:01:36;;;;;;;4.10;3.28;;;;;;;;;;10330862;28;20064;-64
2023/09/02 21:06:36;;;;;;;4.18;3.78;;;;;;;;;;10326302;28;20083;-64
2023/09/02 21:11:34;;;;;;;5.40;3.83;;;;;;;;;;10330440;28;20087;-64
2023/09/02 21:16:32;;;;;;;4.97;3.45;;;;;;;;;;10331271;28;20087;-65
2023/09/02 21:21:30;;;;;;;4.57;3.75;;;;;;;;;;10331391;28;20080;-65
2023/09/02 21:26:30;;;;;;;4.45;3.85;;;;;;;;;;10332174;28;20067;-66
2023/09/02 21:31:29;;;;;;;4.35;3.95;;;;;;;;;;10331738;28;20075;-65
2023/09/02 21:36:27;;;;;;;5.10;3.35;;;;;;;;;;10328465;28;20504;-64
2023/09/02 21:41:25;;;;;;;5.22;3.63;;;;;;;;;;10319894;28;20494;-65
2023/09/02 21:46:24;;;;;;;3.88;3.47;;;;;;;;;;10327873;28;20061;-65
2023/09/02 21:51:23;;;;;;;7.07;4.22;;;;;;;;;;10332502;28;20495;-64
2023/09/02 21:56:21;;;;;;;4.10;3.70;;;;;;;;;;10298424;28;20072;-65
2023/09/02 22:01:20;;;;;;;5.55;4.30;;;;;;;;;;10325084;28;20067;-65
2023/09/02 22:06:19;;;;;;;5.78;4.20;;;;;;;;;;10329791;28;20129;-64
2023/09/02 22:11:18;;;;;;;6.22;4.63;;;;;;;;;;10329874;28;20099;-65
2023/09/02 22:16:17;;;;;;;4.40;4.00;;;;;;;;;;10329887;28;20075;-65
2023/09/02 22:21:15;;;;;;;8.68;4.82;;;;;;;;;;10330612;28;20481;-65
2023/09/02 22:26:15;;;;;;;5.00;4.00;;;;;;;;;;10328904;28;20075;-65
2023/09/02 22:31:15;;;;;;;7.53;4.35;;;;;;;;;;10328923;28;20095;-65
2023/09/02 22:36:14;;;;;;;4.70;4.10;;;;;;;;;;10327868;28;20536;-64
2023/09/02 22:41:13;;;;;;;4.85;4.35;;;;;;;;;;10330221;28;20100;-64
2023/09/02 22:46:12;;;;;;;5.28;4.03;;;;;;;;;;10328857;28;20076;-64
2023/09/02 22:51:11;;;;;;;4.43;3.88;;;;;;;;;;10329016;28;20079;-65
2023/09/02 22:56:10;;;;;;;6.28;4.65;;;;;;;;;;10297159;28;20461;-65
2023/09/02 23:01:09;;;;;;;4.82;4.40;;;;;;;;;;10326344;28;20083;-65
2023/09/02 23:06:10;;;;;;;4.97;4.40;;;;;;;;;;10331416;28;20076;-65
2023/09/02 23:11:09;;;;;;;6.43;4.40;;;;;;;;;;10334110;28;20086;-62
2023/09/02 23:16:07;;;;;;;5.32;4.82;;;;;;;;;;10332324;28;20072;-64
2023/09/02 23:21:10;;;;;;;7.68;4.25;;;;;;;;;;10333970;28;20581;-64
2023/09/02 23:26:09;;;;;;;5.10;4.05;;;;;;;;;;10335885;28;20103;-64
2023/09/02 23:31:07;;;;;;;7.50;4.68;;;;;;;;;;10327459;28;20068;-64
2023/09/02 23:36:06;;;;;;;5.32;4.82;;;;;;;;;;10333544;28;20138;-65
2023/09/02 23:41:06;;;;;;;5.13;4.45;;;;;;;;;;10331327;28;20094;-65
2023/09/02 23:46:08;;;;;;;;;;;;;;;;;;10332385;28;20500;-65
2023/09/02 23:51:06;;;;;;;9.07;4.18;;;;;;;;;;10333586;28;19959;-64
2023/09/02 23:56:05;;;;;;;7.25;4.82;;;;;;;;;;10317748;28;20048;-66
